createdAt,value
2019-01-20T00:01:28.207Z,3.63
2019-01-20T00:06:36.216Z,4.63
2019-01-20T00:11:40.834Z,3.73
2019-01-20T00:16:45.523Z,4.60
2019-01-20T00:21:51.486Z,4.77
2019-01-20T00:26:56.431Z,4.47
2019-01-20T00:32:00.946Z,5.00
2019-01-20T00:37:09.010Z,4.53
2019-01-20T00:42:13.698Z,4.80
2019-01-20T00:47:18.262Z,4.83
2019-01-20T00:52:23.442Z,4.77
2019-01-20T00:57:27.966Z,6.30
2019-01-20T01:02:32.511Z,6.47
2019-01-20T01:07:36.983Z,7.27
2019-01-20T01:12:44.131Z,6.40
2019-01-20T01:17:48.717Z,6.60
2019-01-20T01:22:53.327Z,6.97
2019-01-20T01:28:04.510Z,6.77
2019-01-20T01:33:09.449Z,7.17
2019-01-20T01:38:14.032Z,7.37
2019-01-20T01:43:19.051Z,7.47
2019-01-20T01:48:23.642Z,7.20
2019-01-20T01:53:28.270Z,8.20
2019-01-20T01:58:35.594Z,7.83
2019-01-20T02:03:40.303Z,7.70
2019-01-20T02:08:44.831Z,7.73
2019-01-20T02:13:49.376Z,8.07
2019-01-20T02:18:53.998Z,8.13
2019-01-20T02:23:58.727Z,8.00
2019-01-20T02:29:03.595Z,8.07
2019-01-20T02:34:08.247Z,7.23
2019-01-20T02:39:12.981Z,7.73
2019-01-20T02:44:17.543Z,8.10
2019-01-20T02:49:22.050Z,7.67
2019-01-20T02:54:26.551Z,8.80
2019-01-20T02:59:31.047Z,7.37
2019-01-20T03:04:35.542Z,7.73
2019-01-20T03:09:40.074Z,7.77
2019-01-20T03:14:44.706Z,8.13
2019-01-20T03:19:49.242Z,6.90
2019-01-20T03:24:56.971Z,7.87
2019-01-20T03:30:01.550Z,7.50
2019-01-20T03:35:06.678Z,7.97
2019-01-20T03:40:13.190Z,8.03
2019-01-20T03:45:18.905Z,7.43
2019-01-20T03:50:23.547Z,8.07
2019-01-20T03:55:28.339Z,7.73
2019-01-20T04:00:35.985Z,7.57
2019-01-20T04:05:40.591Z,8.57
2019-01-20T04:10:49.024Z,6.77
2019-01-20T04:15:53.558Z,8.30
2019-01-20T04:20:58.150Z,7.10
2019-01-20T04:26:02.720Z,7.07
2019-01-20T04:31:07.791Z,7.57
2019-01-20T04:36:12.495Z,7.50
2019-01-20T04:41:17.279Z,7.47
2019-01-20T04:46:21.770Z,6.77
2019-01-20T04:51:26.378Z,6.70
2019-01-20T04:56:31.178Z,7.37
2019-01-20T05:01:35.657Z,6.77
2019-01-20T05:06:43.203Z,7.60
2019-01-20T05:11:47.697Z,6.60
2019-01-20T05:16:52.241Z,7.23
2019-01-20T05:21:56.975Z,7.60
2019-01-20T05:27:01.551Z,8.23
2019-01-20T05:32:06.486Z,7.33
2019-01-20T05:37:13.122Z,7.17
2019-01-20T05:42:17.606Z,7.37
2019-01-20T05:47:22.335Z,6.47
2019-01-20T05:52:27.227Z,7.97
2019-01-20T05:57:31.734Z,7.30
2019-01-20T06:02:36.298Z,6.90
2019-01-20T06:07:40.840Z,7.17
2019-01-20T06:12:45.321Z,6.53
2019-01-20T06:17:50.118Z,6.40
2019-01-20T06:22:55.024Z,5.80
2019-01-20T06:27:59.631Z,5.67
2019-01-20T06:33:04.203Z,6.07
2019-01-20T06:38:08.842Z,6.10
2019-01-20T06:43:14.532Z,6.20
2019-01-20T06:48:19.589Z,5.50
2019-01-20T06:53:24.116Z,7.00
2019-01-20T06:58:28.788Z,5.90
2019-01-20T07:03:33.375Z,6.13
2019-01-20T07:08:38.042Z,5.43
2019-01-20T07:13:45.994Z,5.33
2019-01-20T07:18:50.524Z,6.50
2019-01-20T07:23:55.079Z,6.33
2019-01-20T07:28:59.719Z,6.57
2019-01-20T07:34:04.439Z,6.57
2019-01-20T07:39:09.171Z,6.07
2019-01-20T07:44:13.956Z,5.80
2019-01-20T07:49:18.729Z,5.83
2019-01-20T07:54:26.247Z,6.50
2019-01-20T07:59:30.762Z,6.00
2019-01-20T08:04:35.278Z,6.53
2019-01-20T08:09:39.830Z,5.73
2019-01-20T08:14:44.314Z,5.53
2019-01-20T08:19:48.922Z,6.23
2019-01-20T08:24:53.425Z,6.50
2019-01-20T08:29:58.027Z,5.40
2019-01-20T08:35:02.539Z,6.20
2019-01-20T08:40:10.307Z,6.10
2019-01-20T08:45:45.316Z,6.00
2019-01-20T08:50:50.047Z,6.60
2019-01-20T08:55:54.775Z,6.50
2019-01-20T09:00:59.451Z,6.40
2019-01-20T09:06:04.323Z,6.57
2019-01-20T09:11:08.992Z,6.47
2019-01-20T09:16:13.763Z,6.80
2019-01-20T09:21:18.526Z,6.77
2019-01-20T09:26:23.183Z,6.93
2019-01-20T09:31:27.889Z,7.27
2019-01-20T09:36:32.423Z,7.37
2019-01-20T09:41:37.091Z,6.70
2019-01-20T09:46:41.771Z,6.80
2019-01-20T09:51:46.485Z,6.97
2019-01-20T09:56:51.261Z,7.73
2019-01-20T10:01:55.862Z,7.03
2019-01-20T10:07:00.496Z,7.70
2019-01-20T10:12:05.791Z,7.43
2019-01-20T10:17:10.511Z,7.57
2019-01-20T10:22:15.210Z,7.93
2019-01-20T10:27:19.727Z,8.73
2019-01-20T10:32:24.226Z,8.00
2019-01-20T10:37:32.654Z,8.87
2019-01-20T10:42:37.338Z,8.47
2019-01-20T10:47:42.207Z,7.93
2019-01-20T10:52:46.870Z,8.60
2019-01-20T10:58:10.458Z,8.10
2019-01-20T11:03:15.006Z,8.67
2019-01-20T11:08:19.503Z,9.23
2019-01-20T11:13:24.183Z,8.17
2019-01-20T11:18:28.718Z,9.63
2019-01-20T11:23:33.609Z,9.03
2019-01-20T11:28:44.390Z,7.33
2019-01-20T11:33:51.758Z,7.23
2019-01-20T11:38:56.319Z,8.13
2019-01-20T11:44:01.163Z,7.03
2019-01-20T11:49:06.168Z,7.20
2019-01-20T11:54:10.931Z,7.67
2019-01-20T11:59:16.390Z,8.00
2019-01-20T12:04:20.895Z,7.40
2019-01-20T12:09:25.512Z,7.87
2019-01-20T12:14:30.326Z,7.10
2019-01-20T12:19:35.255Z,8.53
2019-01-20T12:24:39.898Z,6.77
2019-01-20T12:29:51.631Z,8.93
2019-01-20T12:34:50.910Z,8.00
2019-01-20T12:39:55.415Z,7.20
2019-01-20T12:44:59.842Z,6.80
2019-01-20T12:50:05.679Z,6.93
2019-01-20T12:55:10.890Z,7.43
2019-01-20T13:00:17.143Z,6.20
2019-01-20T13:05:21.670Z,6.83
2019-01-20T13:10:26.313Z,6.23
2019-01-20T13:15:31.313Z,6.07
2019-01-20T13:20:36.285Z,6.13
2019-01-20T13:25:40.871Z,6.20
2019-01-20T13:30:49.319Z,5.50
2019-01-20T13:35:53.878Z,6.37
2019-01-20T13:41:01.602Z,5.77
2019-01-20T13:46:09.508Z,4.73
2019-01-20T13:51:14.215Z,7.20
2019-01-20T13:56:18.679Z,5.67
2019-01-20T14:01:23.318Z,6.13
2019-01-20T14:06:27.761Z,6.40
2019-01-20T14:11:32.280Z,5.87
2019-01-20T14:16:37.012Z,5.93
2019-01-20T14:21:41.690Z,5.80
2019-01-20T14:26:46.253Z,6.40
2019-01-20T14:31:50.931Z,5.43
2019-01-20T14:36:55.458Z,5.60
2019-01-20T14:42:00.191Z,5.50
2019-01-20T14:47:04.947Z,5.13
2019-01-20T14:52:09.614Z,6.17
2019-01-20T14:57:14.310Z,5.90
2019-01-20T15:02:18.774Z,6.00
2019-01-20T15:07:23.397Z,7.23
2019-01-20T15:12:28.019Z,5.67
2019-01-20T15:17:32.586Z,6.20
2019-01-20T15:22:37.642Z,5.87
2019-01-20T15:27:42.454Z,5.40
2019-01-20T15:32:48.314Z,5.77
2019-01-20T15:37:52.876Z,5.90
2019-01-20T15:42:57.635Z,5.87
2019-01-20T15:48:02.093Z,6.07
2019-01-20T15:53:06.957Z,6.23
2019-01-20T15:58:11.718Z,6.00
2019-01-20T16:03:16.511Z,6.93
2019-01-20T16:08:21.022Z,6.70
2019-01-20T16:13:25.694Z,6.27
2019-01-20T16:18:30.398Z,6.73
2019-01-20T16:23:41.957Z,6.60
2019-01-20T16:28:46.495Z,8.80
2019-01-20T16:33:51.018Z,7.10
2019-01-20T16:38:55.862Z,8.33
2019-01-20T16:44:00.414Z,7.47
2019-01-20T16:49:05.313Z,8.00
2019-01-20T16:54:09.987Z,9.03
2019-01-20T16:59:14.590Z,9.77
2019-01-20T17:04:19.167Z,10.10
2019-01-20T17:09:23.982Z,9.90
2019-01-20T17:14:28.490Z,10.57
2019-01-20T17:19:33.315Z,9.70
2019-01-20T17:24:37.912Z,10.13
2019-01-20T17:29:45.821Z,10.17
2019-01-20T17:34:50.309Z,10.53
2019-01-20T17:39:55.150Z,11.67
2019-01-20T17:44:59.706Z,8.70
2019-01-20T17:50:05.908Z,8.30
2019-01-20T17:55:10.544Z,9.80
2019-01-20T18:00:18.774Z,9.13
2019-01-20T18:05:24.502Z,8.50
2019-01-20T18:10:29.232Z,8.43
2019-01-20T18:15:34.086Z,9.80
2019-01-20T18:20:38.727Z,8.23
2019-01-20T18:25:43.731Z,9.33
2019-01-20T18:30:48.385Z,8.10
2019-01-20T18:35:52.842Z,8.43
2019-01-20T18:40:58.419Z,9.23
2019-01-20T18:46:02.992Z,11.10
2019-01-20T18:51:07.626Z,8.70
2019-01-20T18:56:12.284Z,8.97
2019-01-20T19:01:16.882Z,8.40
2019-01-20T19:06:21.677Z,8.80
2019-01-20T19:11:26.323Z,11.10
2019-01-20T19:16:31.103Z,10.93
2019-01-20T19:21:35.748Z,9.23
2019-01-20T19:26:40.459Z,10.13
2019-01-20T19:31:45.026Z,9.03
2019-01-20T19:36:49.687Z,8.70
2019-01-20T19:41:54.510Z,7.70
2019-01-20T19:46:59.086Z,7.43
2019-01-20T19:52:03.720Z,8.27
2019-01-20T19:57:08.352Z,8.20
2019-01-20T20:02:12.946Z,8.43
2019-01-20T20:07:17.415Z,8.00
2019-01-20T20:12:22.024Z,7.87
2019-01-20T20:17:26.576Z,8.37
2019-01-20T20:22:31.159Z,9.47
2019-01-20T20:27:35.746Z,9.27
2019-01-20T20:32:40.491Z,9.40
2019-01-20T20:37:45.203Z,9.50
2019-01-20T20:42:49.772Z,9.57
2019-01-20T20:47:54.427Z,9.17
2019-01-20T20:52:58.977Z,9.40
2019-01-20T20:58:03.803Z,9.50
2019-01-20T21:03:11.996Z,9.07
2019-01-20T21:08:16.531Z,9.47
2019-01-20T21:13:21.054Z,9.93
2019-01-20T21:18:25.658Z,9.90
2019-01-20T21:23:30.539Z,11.20
2019-01-20T21:28:35.082Z,11.13
2019-01-20T21:33:39.742Z,11.20
2019-01-20T21:38:44.394Z,10.17
2019-01-20T21:43:49.062Z,11.30
2019-01-20T21:48:53.899Z,11.57
2019-01-20T21:53:58.345Z,10.77
2019-01-20T21:59:02.995Z,12.10
2019-01-20T22:04:07.971Z,11.17
2019-01-20T22:09:12.762Z,12.00
2019-01-20T22:14:17.637Z,11.77
2019-01-20T22:19:22.279Z,11.70
2019-01-20T22:24:27.010Z,11.67
2019-01-20T22:29:31.567Z,11.20
2019-01-20T22:34:36.280Z,11.30
2019-01-20T22:39:40.859Z,10.77
2019-01-20T22:44:45.498Z,10.50
2019-01-20T22:49:50.287Z,10.73
2019-01-20T22:54:54.798Z,11.30
2019-01-20T22:59:59.603Z,10.77
2019-01-20T23:05:04.294Z,11.57
2019-01-20T23:10:09.215Z,10.63
2019-01-20T23:15:13.904Z,10.47
2019-01-20T23:20:18.502Z,11.87
2019-01-20T23:25:23.049Z,11.50
2019-01-20T23:30:27.515Z,11.53
2019-01-20T23:35:32.179Z,12.27
2019-01-20T23:40:36.711Z,11.63
2019-01-20T23:45:41.566Z,11.37
2019-01-20T23:50:46.451Z,12.83
2019-01-20T23:55:51.375Z,11.60
